createdAt,value
2019-05-01T00:00:57.485Z,99.90
2019-05-01T00:03:32.232Z,99.90
2019-05-01T00:06:04.230Z,99.90
2019-05-01T00:08:34.650Z,99.90
2019-05-01T00:11:05.017Z,99.90
2019-05-01T00:13:35.446Z,99.90
2019-05-01T00:16:06.009Z,99.90
2019-05-01T00:18:36.435Z,99.90
2019-05-01T00:21:06.861Z,99.90
2019-05-01T00:23:37.230Z,99.90
2019-05-01T00:26:07.643Z,99.90
2019-05-01T00:28:38.183Z,99.90
2019-05-01T00:31:08.635Z,99.90
2019-05-01T00:33:39.150Z,99.90
2019-05-01T00:36:09.633Z,99.90
2019-05-01T00:38:40.068Z,99.90
2019-05-01T00:41:10.495Z,99.90
2019-05-01T00:43:40.869Z,99.90
2019-05-01T00:46:11.303Z,99.90
2019-05-01T00:48:41.747Z,99.90
2019-05-01T00:51:12.117Z,99.90
2019-05-01T00:53:42.534Z,99.90
2019-05-01T00:56:20.611Z,99.90
2019-05-01T00:59:04.690Z,99.90
2019-05-01T01:01:42.434Z,99.90
2019-05-01T01:04:14.413Z,99.90
2019-05-01T01:06:44.765Z,99.90
2019-05-01T01:09:16.186Z,99.90
2019-05-01T01:11:46.562Z,99.90
2019-05-01T01:14:16.915Z,99.90
2019-05-01T01:16:48.522Z,99.90
2019-05-01T01:19:18.887Z,99.90
2019-05-01T01:21:49.338Z,99.90
2019-05-01T01:24:19.699Z,99.90
2019-05-01T01:26:50.417Z,99.90
2019-05-01T01:29:20.909Z,99.90
2019-05-01T01:31:51.323Z,99.90
2019-05-01T01:34:21.693Z,99.90
2019-05-01T01:36:52.125Z,99.90
2019-05-01T01:39:22.489Z,99.90
2019-05-01T01:41:53.121Z,99.90
2019-05-01T01:44:28.531Z,99.90
2019-05-01T01:47:00.537Z,99.90
2019-05-01T01:49:31.090Z,99.90
2019-05-01T01:52:01.906Z,99.90
2019-05-01T01:54:32.649Z,99.90
2019-05-01T01:57:03.069Z,99.90
2019-05-01T01:59:33.807Z,99.90
2019-05-01T02:02:06.002Z,99.90
2019-05-01T02:04:41.107Z,99.90
2019-05-01T02:07:11.533Z,99.90
2019-05-01T02:09:42.039Z,99.90
2019-05-01T02:12:13.565Z,99.90
2019-05-01T02:14:43.992Z,99.90
2019-05-01T02:17:14.407Z,99.90
2019-05-01T02:19:44.824Z,99.90
2019-05-01T02:22:15.236Z,99.90
2019-05-01T02:24:45.654Z,99.90
2019-05-01T02:27:19.155Z,99.90
2019-05-01T02:29:51.646Z,99.90
2019-05-01T02:32:23.631Z,99.90
2019-05-01T02:34:55.650Z,99.90
2019-05-01T02:37:27.785Z,99.90
2019-05-01T02:40:01.484Z,99.90
2019-05-01T02:42:34.058Z,99.90
2019-05-01T02:45:06.022Z,99.90
2019-05-01T02:47:37.880Z,99.90
2019-05-01T02:50:11.140Z,99.90
2019-05-01T02:52:44.202Z,99.90
2019-05-01T02:55:16.507Z,99.90
2019-05-01T02:57:47.245Z,99.90
2019-05-01T03:00:17.678Z,99.90
2019-05-01T03:02:48.650Z,99.90
2019-05-01T03:05:19.083Z,99.90
2019-05-01T03:07:50.038Z,99.90
2019-05-01T03:10:20.968Z,99.90
2019-05-01T03:12:52.626Z,99.90
2019-05-01T03:15:25.054Z,99.90
2019-05-01T03:18:11.520Z,99.90
2019-05-01T03:20:55.812Z,99.90
2019-05-01T03:23:33.834Z,99.90
2019-05-01T03:26:05.279Z,99.90
2019-05-01T03:28:35.829Z,99.90
2019-05-01T03:31:06.787Z,99.90
2019-05-01T03:33:37.332Z,99.90
2019-05-01T03:36:07.989Z,99.90
2019-05-01T03:38:38.808Z,99.90
2019-05-01T03:41:10.859Z,99.90
2019-05-01T03:43:41.378Z,99.90
2019-05-01T03:46:11.847Z,99.90
2019-05-01T03:48:43.576Z,99.90
2019-05-01T03:51:14.391Z,99.90
2019-05-01T03:53:46.016Z,99.90
2019-05-01T03:56:16.869Z,99.90
2019-05-01T03:58:47.677Z,99.90
2019-05-01T04:01:20.524Z,99.90
2019-05-01T04:03:53.263Z,99.90
2019-05-01T04:06:24.133Z,99.90
2019-05-01T04:08:55.380Z,99.90
2019-05-01T04:11:26.135Z,99.90
2019-05-01T04:13:57.683Z,99.90
2019-05-01T04:16:29.056Z,99.90
2019-05-01T04:19:00.088Z,99.90
2019-05-01T04:21:32.126Z,99.90
2019-05-01T04:24:02.766Z,99.90
2019-05-01T04:26:33.833Z,99.90
2019-05-01T04:29:15.586Z,99.90
2019-05-01T04:31:47.502Z,99.90
2019-05-01T04:34:23.153Z,99.90
2019-05-01T04:37:01.446Z,99.90
2019-05-01T04:39:32.699Z,99.90
2019-05-01T04:42:03.252Z,99.90
2019-05-01T04:44:34.095Z,99.90
2019-05-01T04:47:05.177Z,99.90
2019-05-01T04:49:35.615Z,99.90
2019-05-01T04:52:06.747Z,99.90
2019-05-01T04:54:37.503Z,99.90
2019-05-01T04:57:08.047Z,99.90
2019-05-01T04:59:38.875Z,99.90
2019-05-01T05:02:11.482Z,99.90
2019-05-01T05:04:42.538Z,99.90
2019-05-01T05:07:13.125Z,99.90
2019-05-01T05:09:45.367Z,99.90
2019-05-01T05:12:25.787Z,99.90
2019-05-01T05:15:12.773Z,99.90
2019-05-01T05:17:43.202Z,99.90
2019-05-01T05:20:13.653Z,99.90
2019-05-01T05:22:44.067Z,99.90
2019-05-01T05:25:14.442Z,99.90
2019-05-01T05:27:47.217Z,99.90
2019-05-01T05:30:17.689Z,99.90
2019-05-01T05:32:49.502Z,99.90
2019-05-01T05:35:22.378Z,99.90
2019-05-01T05:37:56.498Z,99.90
2019-05-01T05:40:30.125Z,99.90
2019-05-01T05:43:00.568Z,99.90
2019-05-01T05:45:31.047Z,99.90
2019-05-01T05:48:02.576Z,99.90
2019-05-01T05:50:53.685Z,99.90
2019-05-01T05:53:30.079Z,99.90
2019-05-01T05:56:04.950Z,99.90
2019-05-01T05:58:40.015Z,99.90
2019-05-01T06:01:31.350Z,99.90
2019-05-01T06:04:17.976Z,99.90
2019-05-01T06:06:52.167Z,99.90
2019-05-01T06:09:26.668Z,99.90
2019-05-01T06:12:12.199Z,99.00
2019-05-01T06:14:49.242Z,99.50
2019-05-01T06:17:28.550Z,99.30
2019-05-01T06:20:04.509Z,96.60
2019-05-01T06:22:53.109Z,97.30
2019-05-01T06:25:28.062Z,96.50
2019-05-01T06:27:59.266Z,96.90
2019-05-01T06:30:31.587Z,95.90
2019-05-01T06:33:04.312Z,96.10
2019-05-01T06:35:38.004Z,97.40
2019-05-01T06:38:09.106Z,95.90
2019-05-01T06:40:41.502Z,96.60
2019-05-01T06:43:37.391Z,95.00
2019-05-01T06:46:11.082Z,96.60
2019-05-01T06:49:06.797Z,93.30
2019-05-01T06:51:41.536Z,97.20
2019-05-01T06:54:16.429Z,93.00
2019-05-01T06:56:45.917Z,95.20
2019-05-01T06:59:17.858Z,94.50
2019-05-01T07:01:53.296Z,95.20
2019-05-01T07:04:24.416Z,92.60
2019-05-01T07:06:54.890Z,93.00
2019-05-01T07:09:28.106Z,90.50
2019-05-01T07:11:58.139Z,82.80
2019-05-01T07:14:29.101Z,88.30
2019-05-01T07:16:59.647Z,90.40
2019-05-01T07:19:47.819Z,89.50
2019-05-01T07:22:18.356Z,88.50
2019-05-01T07:24:49.194Z,91.30
2019-05-01T07:27:23.644Z,91.50
2019-05-01T07:29:54.018Z,86.10
2019-05-01T07:32:24.559Z,84.70
2019-05-01T07:34:56.852Z,87.10
2019-05-01T07:37:27.806Z,88.40
2019-05-01T07:39:58.618Z,86.80
2019-05-01T07:42:30.802Z,86.00
2019-05-01T07:45:21.596Z,85.20
2019-05-01T07:47:54.259Z,78.90
2019-05-01T07:50:31.648Z,78.20
2019-05-01T07:52:57.359Z,85.70
2019-05-01T07:55:38.007Z,79.10
2019-05-01T07:58:15.246Z,80.20
2019-05-01T08:00:52.252Z,89.80
2019-05-01T08:03:22.723Z,78.10
2019-05-01T08:05:53.244Z,78.80
2019-05-01T08:08:23.614Z,79.90
2019-05-01T08:10:54.055Z,83.30
2019-05-01T08:13:24.415Z,82.10
2019-05-01T08:15:55.013Z,86.30
2019-05-01T08:18:42.477Z,86.70
2019-05-01T08:21:26.082Z,93.20
2019-05-01T08:23:56.693Z,93.20
2019-05-01T08:26:27.045Z,95.60
2019-05-01T08:29:06.917Z,95.50
2019-05-01T08:31:41.479Z,93.50
2019-05-01T08:34:16.217Z,96.60
2019-05-01T08:36:47.161Z,94.10
2019-05-01T08:39:18.641Z,98.10
2019-05-01T08:41:49.155Z,95.80
2019-05-01T08:44:20.692Z,93.40
2019-05-01T08:46:57.198Z,93.30
2019-05-01T08:49:29.390Z,93.00
2019-05-01T08:51:59.828Z,94.00
2019-05-01T08:54:33.558Z,96.90
2019-05-01T08:57:02.262Z,99.40
2019-05-01T08:59:32.616Z,92.10
2019-05-01T09:02:09.581Z,98.90
2019-05-01T09:04:35.140Z,97.20
2019-05-01T09:07:05.662Z,95.90
2019-05-01T09:09:39.969Z,93.00
2019-05-01T09:12:11.875Z,98.60
2019-05-01T09:14:40.046Z,97.70
2019-05-01T09:17:10.478Z,94.00
2019-05-01T09:19:40.858Z,91.90
2019-05-01T09:22:11.294Z,95.10
2019-05-01T09:24:41.969Z,99.90
2019-05-01T09:27:29.637Z,96.10
2019-05-01T09:30:21.765Z,96.50
2019-05-01T09:32:54.610Z,98.00
2019-05-01T09:35:24.469Z,97.30
2019-05-01T09:37:54.918Z,97.00
2019-05-01T09:40:25.284Z,95.70
2019-05-01T09:42:59.442Z,95.90
2019-05-01T09:45:27.816Z,96.30
2019-05-01T09:47:58.233Z,95.20
2019-05-01T09:50:30.398Z,97.20
2019-05-01T09:53:05.903Z,96.30
2019-05-01T09:55:43.906Z,96.50
2019-05-01T09:58:14.443Z,95.50
2019-05-01T10:00:48.875Z,94.40
2019-05-01T10:03:18.335Z,93.60
2019-05-01T10:05:48.988Z,90.40
2019-05-01T10:08:19.407Z,95.40
2019-05-01T10:10:49.835Z,93.40
2019-05-01T10:13:22.357Z,97.10
2019-05-01T10:15:52.301Z,91.90
2019-05-01T10:18:22.722Z,93.20
2019-05-01T10:20:53.145Z,92.40
2019-05-01T10:23:23.580Z,93.20
2019-05-01T10:25:55.579Z,91.90
2019-05-01T10:28:27.562Z,94.20
2019-05-01T10:31:11.898Z,93.40
2019-05-01T10:33:42.606Z,91.20
2019-05-01T10:36:18.945Z,89.70
2019-05-01T10:38:46.861Z,93.40
2019-05-01T10:41:17.549Z,94.30
2019-05-01T10:43:48.024Z,91.20
2019-05-01T10:46:18.451Z,89.80
2019-05-01T10:48:49.077Z,92.40
2019-05-01T10:51:19.495Z,92.70
2019-05-01T10:53:49.877Z,91.50
2019-05-01T10:56:20.406Z,90.20
2019-05-01T10:58:50.765Z,92.50
2019-05-01T11:01:40.257Z,94.60
2019-05-01T11:04:10.710Z,93.30
2019-05-01T11:06:41.122Z,92.80
2019-05-01T11:09:12.046Z,88.90
2019-05-01T11:11:42.422Z,91.70
2019-05-01T11:14:12.843Z,90.00
2019-05-01T11:16:43.218Z,87.50
2019-05-01T11:19:13.781Z,91.20
2019-05-01T11:21:44.155Z,90.10
2019-05-01T11:24:14.572Z,84.50
2019-05-01T11:26:44.931Z,85.00
2019-05-01T11:29:15.359Z,78.10
2019-05-01T11:31:47.295Z,76.10
2019-05-01T11:34:20.625Z,68.40
2019-05-01T11:37:01.941Z,67.50
2019-05-01T11:39:43.103Z,59.90
2019-05-01T11:42:16.746Z,59.70
2019-05-01T11:44:47.162Z,71.80
2019-05-01T11:47:17.529Z,69.00
2019-05-01T11:49:47.974Z,70.50
2019-05-01T11:52:18.352Z,70.30
2019-05-01T11:54:48.810Z,72.90
2019-05-01T11:57:19.234Z,69.80
2019-05-01T11:59:49.685Z,65.70
2019-05-01T12:02:20.049Z,67.60
2019-05-01T12:04:50.474Z,68.10
2019-05-01T12:07:20.840Z,65.00
2019-05-01T12:09:51.274Z,67.20
2019-05-01T12:12:24.318Z,62.20
2019-05-01T12:14:54.757Z,70.80
2019-05-01T12:17:38.748Z,66.60
2019-05-01T12:20:08.094Z,68.30
2019-05-01T12:22:38.453Z,57.10
2019-05-01T12:25:08.990Z,63.10
2019-05-01T12:27:39.349Z,64.10
2019-05-01T12:30:10.807Z,65.50
2019-05-01T12:32:41.237Z,64.80
2019-05-01T12:35:11.852Z,68.80
2019-05-01T12:37:42.971Z,68.90
2019-05-01T12:40:15.912Z,67.00
2019-05-01T12:42:46.571Z,65.90
2019-05-01T12:45:17.946Z,68.60
2019-05-01T12:47:49.935Z,69.90
2019-05-01T12:50:21.091Z,62.50
2019-05-01T12:53:02.087Z,64.90
2019-05-01T12:55:37.192Z,69.20
2019-05-01T12:58:07.625Z,65.20
2019-05-01T13:00:43.772Z,66.50
2019-05-01T13:03:14.186Z,66.60
2019-05-01T13:05:44.546Z,60.20
2019-05-01T13:08:14.908Z,59.60
2019-05-01T13:10:45.358Z,58.50
2019-05-01T13:13:15.706Z,61.30
2019-05-01T13:15:46.079Z,62.50
2019-05-01T13:18:16.490Z,61.50
2019-05-01T13:20:46.847Z,61.40
2019-05-01T13:23:17.287Z,61.80
2019-05-01T13:25:48.738Z,63.50
2019-05-01T13:28:30.217Z,60.80
2019-05-01T13:31:02.306Z,62.40
2019-05-01T13:33:32.819Z,59.00
2019-05-01T13:36:03.243Z,65.00
2019-05-01T13:38:33.662Z,60.40
2019-05-01T13:41:04.177Z,59.70
2019-05-01T13:43:34.687Z,60.80
2019-05-01T13:46:05.193Z,59.50
2019-05-01T13:48:35.653Z,61.10
2019-05-01T13:51:06.222Z,63.10
2019-05-01T13:53:36.766Z,54.60
2019-05-01T13:56:08.621Z,54.40
2019-05-01T13:58:39.129Z,60.70
2019-05-01T14:01:09.587Z,63.40
2019-05-01T14:03:40.002Z,61.90
2019-05-01T14:06:10.442Z,60.00
2019-05-01T14:08:40.822Z,64.70
2019-05-01T14:11:11.231Z,61.10
2019-05-01T14:13:41.586Z,62.70
2019-05-01T14:16:14.340Z,62.40
2019-05-01T14:18:44.099Z,64.50
2019-05-01T14:21:31.108Z,61.50
2019-05-01T14:24:09.030Z,59.60
2019-05-01T14:26:39.455Z,63.10
2019-05-01T14:29:10.835Z,60.40
2019-05-01T14:31:41.263Z,60.60
2019-05-01T14:34:11.623Z,59.90
2019-05-01T14:36:42.048Z,58.00
2019-05-01T14:39:12.417Z,60.80
2019-05-01T14:41:42.856Z,61.20
2019-05-01T14:44:13.226Z,57.50
2019-05-01T14:46:43.646Z,58.30
2019-05-01T14:49:14.016Z,59.50
2019-05-01T14:51:44.443Z,59.40
2019-05-01T14:54:14.805Z,58.90
2019-05-01T14:56:45.470Z,61.00
2019-05-01T14:59:15.828Z,59.80
2019-05-01T15:01:47.497Z,60.80
2019-05-01T15:04:17.839Z,60.70
2019-05-01T15:06:48.296Z,62.00
2019-05-01T15:09:18.677Z,61.90
2019-05-01T15:11:49.099Z,61.60
2019-05-01T15:14:23.948Z,59.30
2019-05-01T15:16:58.855Z,59.30
2019-05-01T15:19:33.531Z,59.50
2019-05-01T15:22:03.969Z,59.50
2019-05-01T15:24:34.331Z,58.90
2019-05-01T15:27:04.877Z,59.80
2019-05-01T15:29:35.300Z,61.00
2019-05-01T15:32:05.822Z,63.30
2019-05-01T15:34:36.230Z,62.10
2019-05-01T15:37:06.658Z,65.10
2019-05-01T15:39:41.674Z,63.80
2019-05-01T15:42:13.744Z,61.40
2019-05-01T15:44:47.611Z,62.60
2019-05-01T15:47:16.794Z,59.50
2019-05-01T15:49:47.238Z,59.20
2019-05-01T15:52:17.642Z,65.80
2019-05-01T15:54:48.075Z,61.10
2019-05-01T15:57:18.495Z,63.10
2019-05-01T15:59:50.211Z,60.80
2019-05-01T16:02:21.694Z,63.30
2019-05-01T16:04:52.221Z,60.00
2019-05-01T16:07:22.631Z,63.10
2019-05-01T16:09:53.155Z,60.20
2019-05-01T16:12:30.827Z,59.20
2019-05-01T16:15:01.247Z,59.70
2019-05-01T16:17:31.769Z,59.20
2019-05-01T16:20:02.176Z,58.80
2019-05-01T16:22:34.033Z,59.20
2019-05-01T16:25:06.886Z,60.00
2019-05-01T16:27:37.315Z,60.70
2019-05-01T16:30:08.361Z,59.30
2019-05-01T16:32:38.778Z,63.10
2019-05-01T16:35:09.755Z,63.40
2019-05-01T16:37:40.284Z,65.60
2019-05-01T16:40:21.639Z,65.80
2019-05-01T16:42:52.070Z,63.70
2019-05-01T16:45:22.527Z,64.70
2019-05-01T16:47:52.947Z,62.30
2019-05-01T16:50:23.407Z,62.20
2019-05-01T16:52:53.924Z,62.00
2019-05-01T16:55:24.401Z,62.50
2019-05-01T16:57:54.840Z,61.90
2019-05-01T17:00:45.598Z,60.10
2019-05-01T17:03:17.601Z,60.80
2019-05-01T17:05:52.548Z,64.30
2019-05-01T17:08:37.080Z,61.40
2019-05-01T17:11:10.293Z,65.30
2019-05-01T17:13:40.715Z,65.20
2019-05-01T17:16:11.276Z,64.40
2019-05-01T17:18:41.688Z,64.60
2019-05-01T17:21:12.110Z,65.80
2019-05-01T17:23:42.469Z,66.70
2019-05-01T17:26:14.015Z,68.50
2019-05-01T17:28:44.470Z,69.20
2019-05-01T17:31:15.085Z,72.00
2019-05-01T17:33:45.512Z,72.90
2019-05-01T17:36:15.871Z,76.60
2019-05-01T17:38:49.793Z,75.10
2019-05-01T17:41:18.354Z,74.30
2019-05-01T17:43:49.456Z,74.20
2019-05-01T17:46:20.811Z,76.30
2019-05-01T17:48:51.221Z,77.70
2019-05-01T17:51:21.578Z,83.60
2019-05-01T17:53:51.989Z,84.00
2019-05-01T17:56:27.953Z,81.40
2019-05-01T17:58:54.387Z,83.70
2019-05-01T18:01:32.550Z,85.10
2019-05-01T18:04:16.334Z,88.20
2019-05-01T18:06:48.314Z,87.10
2019-05-01T18:09:18.843Z,93.40
2019-05-01T18:11:52.336Z,93.00
2019-05-01T18:14:21.326Z,96.20
2019-05-01T18:16:51.689Z,99.10
2019-05-01T18:19:22.213Z,99.90
2019-05-01T18:21:56.910Z,99.90
2019-05-01T18:24:28.946Z,99.90
2019-05-01T18:27:03.866Z,99.90
2019-05-01T18:29:39.738Z,99.90
2019-05-01T18:32:10.160Z,99.90
2019-05-01T18:34:40.958Z,99.90
2019-05-01T18:37:18.914Z,99.90
2019-05-01T18:39:49.685Z,99.90
2019-05-01T18:42:20.087Z,99.90
2019-05-01T18:44:50.611Z,99.90
2019-05-01T18:47:20.992Z,99.90
2019-05-01T18:49:51.410Z,99.90
2019-05-01T18:52:21.779Z,99.90
2019-05-01T18:54:52.205Z,99.90
2019-05-01T18:57:22.571Z,99.90
2019-05-01T18:59:52.981Z,99.90
2019-05-01T19:02:25.094Z,99.90
2019-05-01T19:04:55.474Z,99.90
2019-05-01T19:07:25.950Z,99.90
2019-05-01T19:09:56.394Z,99.90
2019-05-01T19:12:26.851Z,99.90
2019-05-01T19:15:00.387Z,99.90
2019-05-01T19:17:29.376Z,99.90
2019-05-01T19:19:59.813Z,99.90
2019-05-01T19:22:30.178Z,99.90
2019-05-01T19:25:01.100Z,99.90
2019-05-01T19:27:31.915Z,99.90
2019-05-01T19:30:02.754Z,99.90
2019-05-01T19:32:34.259Z,99.90
2019-05-01T19:35:06.604Z,99.90
2019-05-01T19:37:37.414Z,99.90
2019-05-01T19:40:09.040Z,99.90
2019-05-01T19:42:40.290Z,99.90
2019-05-01T19:45:12.118Z,99.90
2019-05-01T19:47:43.022Z,99.90
2019-05-01T19:50:14.901Z,99.90
2019-05-01T19:52:45.623Z,99.90
2019-05-01T19:55:16.516Z,99.90
2019-05-01T19:57:47.401Z,99.90
2019-05-01T20:00:36.429Z,99.90
2019-05-01T20:03:07.325Z,99.90
2019-05-01T20:05:38.191Z,99.90
2019-05-01T20:08:09.321Z,99.90
2019-05-01T20:10:40.398Z,99.90
2019-05-01T20:13:12.217Z,99.90
2019-05-01T20:15:43.660Z,99.90
2019-05-01T20:18:14.242Z,99.90
2019-05-01T20:20:45.571Z,99.90
2019-05-01T20:23:16.648Z,99.90
2019-05-01T20:25:50.912Z,99.90
2019-05-01T20:28:20.100Z,99.90
2019-05-01T20:30:51.423Z,99.90
2019-05-01T20:33:21.812Z,99.90
2019-05-01T20:35:52.379Z,99.90
2019-05-01T20:38:22.804Z,99.90
2019-05-01T20:40:53.255Z,99.90
2019-05-01T20:43:23.694Z,99.90
2019-05-01T20:45:54.124Z,99.90
2019-05-01T20:48:25.191Z,99.90
2019-05-01T20:50:57.175Z,99.90
2019-05-01T20:53:27.604Z,99.90
2019-05-01T20:56:08.889Z,99.90
2019-05-01T20:58:39.463Z,99.90
2019-05-01T21:01:09.896Z,99.90
2019-05-01T21:03:41.878Z,99.90
2019-05-01T21:06:19.638Z,99.90
2019-05-01T21:08:54.673Z,99.90
2019-05-01T21:11:26.630Z,99.90
2019-05-01T21:14:15.584Z,99.90
2019-05-01T21:16:32.831Z,99.90
2019-05-01T21:19:01.117Z,99.90
2019-05-01T21:21:34.367Z,99.90
2019-05-01T21:24:05.539Z,99.90
2019-05-01T21:26:35.894Z,99.90
2019-05-01T21:29:06.323Z,99.90
2019-05-01T21:31:36.762Z,99.90
2019-05-01T21:34:07.138Z,99.90
2019-05-01T21:36:37.580Z,99.90
2019-05-01T21:39:08.012Z,99.90
2019-05-01T21:41:38.419Z,99.90
2019-05-01T21:44:08.856Z,99.90
2019-05-01T21:46:39.283Z,99.90
2019-05-01T21:49:12.800Z,99.90
2019-05-01T21:51:46.025Z,99.90
2019-05-01T21:54:16.102Z,99.90
2019-05-01T21:56:47.002Z,99.90
2019-05-01T21:59:17.411Z,99.90
2019-05-01T22:01:48.029Z,99.90
2019-05-01T22:04:18.439Z,99.90
2019-05-01T22:06:51.876Z,99.90
2019-05-01T22:09:22.495Z,99.90
2019-05-01T22:11:52.979Z,99.90
2019-05-01T22:14:36.131Z,99.90
2019-05-01T22:17:06.611Z,99.90
2019-05-01T22:19:37.094Z,99.90
2019-05-01T22:22:11.849Z,99.90
2019-05-01T22:24:45.607Z,99.90
2019-05-01T22:27:21.260Z,99.90
2019-05-01T22:30:12.741Z,99.90
2019-05-01T22:32:45.670Z,99.90
2019-05-01T22:35:26.594Z,99.90
2019-05-01T22:37:59.119Z,99.90
2019-05-01T22:40:49.827Z,99.90
2019-05-01T22:43:20.247Z,99.90
2019-05-01T22:45:56.453Z,99.90
2019-05-01T22:48:28.872Z,99.90
2019-05-01T22:51:01.578Z,99.90
2019-05-01T22:53:32.152Z,99.90
2019-05-01T22:56:04.135Z,99.90
2019-05-01T22:58:35.447Z,99.90
2019-05-01T23:01:07.685Z,99.90
2019-05-01T23:03:51.720Z,99.90
2019-05-01T23:06:22.482Z,99.90
2019-05-01T23:08:53.570Z,99.90
2019-05-01T23:11:25.597Z,99.90
2019-05-01T23:13:55.980Z,99.90
2019-05-01T23:16:29.012Z,99.90
2019-05-01T23:19:00.009Z,99.90
2019-05-01T23:21:30.466Z,99.90
2019-05-01T23:24:01.838Z,99.90
2019-05-01T23:26:33.007Z,99.90
2019-05-01T23:29:04.629Z,99.90
2019-05-01T23:31:35.154Z,99.90
2019-05-01T23:34:05.807Z,99.90
2019-05-01T23:36:36.218Z,99.90
2019-05-01T23:39:07.756Z,99.90
2019-05-01T23:41:45.722Z,99.90
2019-05-01T23:44:10.235Z,99.90
2019-05-01T23:46:41.885Z,99.90
2019-05-01T23:49:12.296Z,99.90
2019-05-01T23:51:42.719Z,99.90
2019-05-01T23:54:13.172Z,99.90
2019-05-01T23:56:43.587Z,99.90
2019-05-01T23:59:14.026Z,99.90
